Wetterdaten: Woche 16.10.17 - 22.10.17 (KW42)
Datum Zeit Temp. A. Feuchte A. Luftdruck Regen Wind Richtung Taupunkt Windchill Windben
16.10.2017 00:00 10,3 C 82 % 1026,1 hPa 0,0 l/m 0,0 km/h N 7,3 C 10,3 C 0,0 km/h
16.10.2017 01:00 9,8 C 83 % 1026,1 hPa 0,0 l/m 0,0 km/h N 6,9 C 9,8 C 0,0 km/h
16.10.2017 02:00 9,4 C 83 % 1026,1 hPa 0,0 l/m 0,0 km/h N 6,7 C 9,4 C 0,0 km/h
16.10.2017 03:00 9,0 C 83 % 1026,2 hPa 0,0 l/m 0,0 km/h N 6,2 C 9,0 C 0,0 km/h
16.10.2017 04:00 9,1 C 83 % 1026,3 hPa 0,0 l/m 0,0 km/h N 6,4 C 9,1 C 0,8 km/h
16.10.2017 05:00 9,1 C 83 % 1026,8 hPa 0,0 l/m 0,0 km/h N 6,4 C 9,1 C 0,0 km/h
16.10.2017 06:00 8,3 C 83 % 1027,2 hPa 0,0 l/m 0,0 km/h N 5,6 C 8,3 C 0,0 km/h
16.10.2017 07:00 8,1 C 83 % 1027,3 hPa 0,0 l/m 0,0 km/h N 5,4 C 8,1 C 0,0 km/h
16.10.2017 08:00 8,4 C 84 % 1027,6 hPa 0,0 l/m 0,0 km/h N 5,9 C 8,4 C 0,0 km/h
16.10.2017 09:00 10,5 C 84 % 1027,8 hPa 0,0 l/m 0,0 km/h N 7,9 C 10,5 C 0,8 km/h
16.10.2017 10:00 12,7 C 84 % 1027,8 hPa 0,0 l/m 0,1 km/h N 10,0 C 12,7 C 2,4 km/h
16.10.2017 11:00 15,7 C 83 % 1027,6 hPa 0,0 l/m 0,0 km/h N 12,8 C 15,7 C 2,0 km/h
16.10.2017 12:00 18,9 C 79 % 1027,1 hPa 0,0 l/m 0,1 km/h N 15,1 C 18,9 C 3,2 km/h
16.10.2017 13:00 20,9 C 70 % 1026,5 hPa 0,0 l/m 0,1 km/h N 15,2 C 20,9 C 3,2 km/h
16.10.2017 14:00 21,6 C 68 % 1026,0 hPa 0,0 l/m 0,2 km/h N 15,3 C 21,6 C 3,6 km/h
16.10.2017 15:00 22,0 C 66 % 1025,5 hPa 0,0 l/m 0,1 km/h N 15,3 C 22,0 C 2,8 km/h
16.10.2017 16:00 21,5 C 67 % 1025,3 hPa 0,0 l/m 0,0 km/h N 15,2 C 21,5 C 1,2 km/h
16.10.2017 17:00 20,6 C 71 % 1025,3 hPa 0,0 l/m 0,0 km/h N 15,1 C 20,6 C 0,0 km/h
16.10.2017 18:00 18,3 C 76 % 1025,5 hPa 0,0 l/m 0,0 km/h N 13,9 C 18,3 C 0,0 km/h
16.10.2017 19:00 15,7 C 79 % 1025,9 hPa 0,0 l/m 0,0 km/h N 12,1 C 15,7 C 0,0 km/h
16.10.2017 20:00 14,1 C 82 % 1026,0 hPa 0,0 l/m 0,0 km/h N 11,0 C 14,1 C 0,0 km/h
16.10.2017 21:00 12,8 C 82 % 1025,9 hPa 0,0 l/m 0,0 km/h N 9,8 C 12,8 C 0,0 km/h
16.10.2017 22:00 12,2 C 82 % 1026,0 hPa 0,0 l/m 0,0 km/h N 9,2 C 12,2 C 0,0 km/h
16.10.2017 23:00 12,0 C 82 % 1025,8 hPa 0,0 l/m 0,0 km/h N 9,0 C 12,0 C 0,8 km/h
17.10.2017 00:00 10,9 C 83 % 1025,8 hPa 0,0 l/m 0,0 km/h N 8,0 C 10,9 C 0,0 km/h
17.10.2017 01:00 10,2 C 83 % 1025,6 hPa 0,0 l/m 0,0 km/h N 7,4 C 10,2 C 0,0 km/h
17.10.2017 02:00 9,8 C 83 % 1025,6 hPa 0,0 l/m 0,0 km/h N 7,0 C 9,8 C 0,0 km/h
17.10.2017 03:00 9,3 C 83 % 1025,3 hPa 0,0 l/m 0,0 km/h N 6,5 C 9,3 C 0,4 km/h
17.10.2017 04:00 8,8 C 83 % 1025,3 hPa 0,0 l/m 0,0 km/h N 6,1 C 8,8 C 0,0 km/h
17.10.2017 05:00 8,2 C 83 % 1025,5 hPa 0,0 l/m 0,0 km/h N 5,5 C 8,2 C 0,0 km/h
17.10.2017 06:00 7,9 C 83 % 1025,6 hPa 0,0 l/m 0,0 km/h N 5,2 C 7,9 C 0,0 km/h
17.10.2017 07:00 7,6 C 84 % 1025,9 hPa 0,3 l/m 0,0 km/h N 5,0 C 7,6 C 0,0 km/h
17.10.2017 08:00 8,2 C 84 % 1026,2 hPa 0,0 l/m 0,0 km/h N 5,7 C 8,2 C 0,0 km/h
17.10.2017 09:00 10,5 C 84 % 1026,3 hPa 0,0 l/m 0,0 km/h N 7,9 C 10,5 C 0,0 km/h
17.10.2017 10:00 13,3 C 84 % 1026,0 hPa 0,0 l/m 0,0 km/h N 10,5 C 13,3 C 1,2 km/h
17.10.2017 11:00 14,7 C 83 % 1025,8 hPa 0,0 l/m 0,3 km/h N 11,9 C 14,7 C 5,2 km/h
17.10.2017 12:00 16,1 C 82 % 1025,3 hPa 0,0 l/m 0,2 km/h N 13,0 C 16,1 C 3,6 km/h
17.10.2017 13:00 18,2 C 78 % 1024,3 hPa 0,0 l/m 0,1 km/h N 14,2 C 18,2 C 3,6 km/h
17.10.2017 14:00 19,4 C 75 % 1023,4 hPa 0,0 l/m 0,3 km/h N 14,8 C 19,4 C 6,0 km/h
17.10.2017 15:00 20,0 C 73 % 1022,5 hPa 0,0 l/m 0,2 km/h N 14,9 C 20,0 C 4,8 km/h
17.10.2017 16:00 19,5 C 74 % 1021,8 hPa 0,0 l/m 0,0 km/h N 14,6 C 19,5 C 2,0 km/h
17.10.2017 17:00 18,9 C 74 % 1021,5 hPa 0,0 l/m 0,1 km/h N 14,1 C 18,9 C 2,0 km/h
17.10.2017 18:00 17,2 C 76 % 1021,3 hPa 0,0 l/m 0,0 km/h N 12,9 C 17,2 C 0,4 km/h
17.10.2017 19:00 14,6 C 78 % 1021,3 hPa 0,0 l/m 0,0 km/h N 10,8 C 14,6 C 0,0 km/h
17.10.2017 20:00 12,8 C 81 % 1021,0 hPa 0,0 l/m 0,0 km/h N 9,6 C 12,8 C 0,0 km/h
17.10.2017 21:00 11,7 C 82 % 1020,5 hPa 0,0 l/m 0,0 km/h N 8,7 C 11,7 C 0,0 km/h
17.10.2017 22:00 10,7 C 82 % 1020,3 hPa 0,0 l/m 0,0 km/h N 7,8 C 10,7 C 0,0 km/h
17.10.2017 23:00 9,9 C 82 % 1019,9 hPa 0,0 l/m 0,0 km/h N 7,0 C 9,9 C 0,0 km/h
18.10.2017 00:00 9,2 C 82 % 1019,3 hPa 0,0 l/m 0,0 km/h N 6,3 C 9,2 C 0,0 km/h
18.10.2017 01:00 9,2 C 83 % 1018,6 hPa 0,0 l/m 0,0 km/h N 6,5 C 9,2 C 0,0 km/h
18.10.2017 02:00 9,1 C 83 % 1018,0 hPa 0,0 l/m 0,0 km/h N 6,3 C 9,1 C 0,0 km/h
18.10.2017 03:00 8,6 C 83 % 1017,6 hPa 0,0 l/m 0,0 km/h N 5,9 C 8,6 C 0,0 km/h
18.10.2017 04:00 8,8 C 83 % 1017,1 hPa 0,0 l/m 0,0 km/h N 6,0 C 8,8 C 0,4 km/h
18.10.2017 05:00 8,9 C 83 % 1016,9 hPa 0,0 l/m 0,0 km/h N 6,1 C 8,9 C 0,0 km/h
18.10.2017 06:00 8,2 C 83 % 1016,8 hPa 0,0 l/m 0,0 km/h N 5,5 C 8,2 C 0,0 km/h
18.10.2017 07:00 7,9 C 84 % 1016,8 hPa 0,0 l/m 0,0 km/h N 5,3 C 7,9 C 0,0 km/h
18.10.2017 08:00 10,4 C 84 % 1017,1 hPa 0,3 l/m 0,1 km/h N 7,7 C 10,4 C 2,0 km/h
18.10.2017 09:00 11,9 C 83 % 1017,2 hPa 0,0 l/m 0,9 km/h N 9,2 C 11,9 C 4,4 km/h
18.10.2017 10:00 12,4 C 83 % 1017,2 hPa 0,0 l/m 2,8 km/h N 9,6 C 12,4 C 8,0 km/h
18.10.2017 11:00 13,3 C 83 % 1017,1 hPa 0,0 l/m 2,3 km/h N 10,5 C 13,3 C 6,8 km/h
18.10.2017 12:00 14,6 C 83 % 1016,8 hPa 0,0 l/m 1,1 km/h N 11,7 C 14,6 C 6,0 km/h
18.10.2017 13:00 16,5 C 82 % 1015,9 hPa 0,0 l/m 0,1 km/h N 13,4 C 16,5 C 3,2 km/h
18.10.2017 14:00 17,8 C 78 % 1015,2 hPa 0,0 l/m 0,0 km/h N 14,0 C 17,8 C 2,4 km/h
18.10.2017 15:00 18,9 C 75 % 1014,6 hPa 0,0 l/m 0,0 km/h N 14,3 C 18,9 C 0,4 km/h
18.10.2017 16:00 18,8 C 74 % 1014,3 hPa 0,0 l/m 0,0 km/h N 13,9 C 18,8 C 0,4 km/h
18.10.2017 17:00 18,1 C 76 % 1014,1 hPa 0,0 l/m 0,0 km/h N 13,7 C 18,1 C 0,0 km/h
18.10.2017 18:00 16,3 C 77 % 1014,3 hPa 0,0 l/m 0,0 km/h N 12,3 C 16,3 C 0,0 km/h
18.10.2017 19:00 14,2 C 80 % 1014,6 hPa 0,0 l/m 0,0 km/h N 10,8 C 14,2 C 0,0 km/h
18.10.2017 20:00 12,9 C 82 % 1014,4 hPa 0,0 l/m 0,0 km/h N 9,9 C 12,9 C 0,4 km/h
18.10.2017 21:00 12,2 C 82 % 1014,5 hPa 0,0 l/m 0,0 km/h N 9,2 C 12,2 C 0,0 km/h
18.10.2017 22:00 11,3 C 82 % 1014,8 hPa 0,0 l/m 0,0 km/h N 8,3 C 11,3 C 0,4 km/h
18.10.2017 23:00 10,3 C 82 % 1014,8 hPa 0,0 l/m 0,0 km/h N 7,3 C 10,3 C 0,0 km/h
19.10.2017 00:00 9,1 C 83 % 1015,1 hPa 0,0 l/m 0,0 km/h N 6,3 C 9,1 C 0,0 km/h
19.10.2017 01:00 9,8 C 83 % 1015,2 hPa 0,0 l/m 0,0 km/h N 7,0 C 9,8 C 0,0 km/h
19.10.2017 02:00 10,9 C 83 % 1015,2 hPa 0,0 l/m 0,0 km/h N 8,1 C 10,9 C 0,0 km/h
19.10.2017 03:00 10,8 C 83 % 1015,3 hPa 0,0 l/m 0,0 km/h N 8,0 C 10,8 C 1,2 km/h
19.10.2017 04:00 10,3 C 83 % 1015,3 hPa 0,0 l/m 0,0 km/h N 7,6 C 10,3 C 0,8 km/h
19.10.2017 05:00 9,8 C 83 % 1015,6 hPa 0,0 l/m 0,0 km/h N 7,1 C 9,8 C 0,8 km/h
19.10.2017 06:00 9,7 C 83 % 1015,7 hPa 0,0 l/m 0,0 km/h N 7,0 C 9,7 C 0,0 km/h
19.10.2017 07:00 9,4 C 83 % 1015,8 hPa 0,0 l/m 0,0 km/h N 6,7 C 9,4 C 0,0 km/h
19.10.2017 08:00 9,7 C 84 % 1016,4 hPa 0,0 l/m 0,0 km/h N 7,1 C 9,7 C 0,0 km/h
19.10.2017 09:00 10,7 C 83 % 1016,7 hPa 0,0 l/m 0,3 km/h N 8,0 C 10,7 C 3,2 km/h
19.10.2017 10:00 11,6 C 83 % 1016,9 hPa 0,0 l/m 0,7 km/h N 8,8 C 11,6 C 7,6 km/h
19.10.2017 11:00 13,0 C 83 % 1017,0 hPa 0,0 l/m 0,5 km/h N 10,2 C 13,0 C 6,8 km/h
19.10.2017 12:00 14,3 C 82 % 1017,0 hPa 0,0 l/m 1,1 km/h N 11,2 C 14,3 C 10,1 km/h
19.10.2017 13:00 14,8 C 80 % 1016,5 hPa 0,0 l/m 1,9 km/h N 11,4 C 14,8 C 10,9 km/h
19.10.2017 14:00 15,0 C 80 % 1016,1 hPa 0,0 l/m 0,5 km/h N 11,5 C 15,0 C 8,1 km/h
19.10.2017 15:00 15,8 C 77 % 1015,8 hPa 0,0 l/m 0,1 km/h N 11,7 C 15,8 C 2,4 km/h
19.10.2017 16:00 15,8 C 77 % 1015,8 hPa 0,0 l/m 0,0 km/h N 11,8 C 15,8 C 1,2 km/h
19.10.2017 17:00 15,0 C 78 % 1015,8 hPa 0,0 l/m 0,0 km/h N 11,2 C 15,0 C 0,4 km/h
19.10.2017 18:00 13,3 C 79 % 1016,0 hPa 0,0 l/m 0,0 km/h N 9,8 C 13,3 C 0,0 km/h
19.10.2017 19:00 11,4 C 81 % 1016,4 hPa 0,0 l/m 0,0 km/h N 8,2 C 11,4 C 0,0 km/h
19.10.2017 20:00 10,3 C 82 % 1016,6 hPa 0,0 l/m 0,0 km/h N 7,4 C 10,3 C 0,0 km/h
19.10.2017 21:00 9,4 C 82 % 1016,6 hPa 0,0 l/m 0,0 km/h N 6,5 C 9,4 C 0,0 km/h
19.10.2017 22:00 8,6 C 83 % 1016,8 hPa 0,0 l/m 0,0 km/h N 5,8 C 8,6 C 0,0 km/h
19.10.2017 23:00 7,9 C 83 % 1016,7 hPa 0,0 l/m 0,0 km/h N 5,2 C 7,9 C 0,0 km/h
20.10.2017 00:00 7,5 C 83 % 1016,4 hPa 0,0 l/m 0,0 km/h N 4,8 C 7,5 C 0,0 km/h
20.10.2017 01:00 7,0 C 83 % 1016,5 hPa 0,0 l/m 0,0 km/h N 4,3 C 7,0 C 0,0 km/h
20.10.2017 02:00 6,3 C 83 % 1016,5 hPa 0,0 l/m 0,0 km/h N 3,6 C 6,3 C 0,0 km/h
20.10.2017 03:00 6,1 C 83 % 1016,2 hPa 0,0 l/m 0,0 km/h N 3,5 C 6,1 C 0,0 km/h
20.10.2017 04:00 6,3 C 84 % 1016,1 hPa 0,0 l/m 0,0 km/h N 3,8 C 6,3 C 0,0 km/h
20.10.2017 05:00 7,7 C 84 % 1016,2 hPa 0,0 l/m 0,0 km/h N 5,2 C 7,7 C 0,4 km/h
20.10.2017 06:00 8,0 C 84 % 1016,3 hPa 0,0 l/m 0,0 km/h N 5,5 C 8,0 C 0,0 km/h
20.10.2017 07:00 8,0 C 84 % 1016,7 hPa 0,3 l/m 0,0 km/h N 5,4 C 8,0 C 0,0 km/h
20.10.2017 08:00 8,4 C 84 % 1017,2 hPa 0,0 l/m 0,0 km/h N 5,9 C 8,4 C 0,0 km/h
20.10.2017 09:00 9,2 C 84 % 1017,4 hPa 0,0 l/m 0,0 km/h N 6,6 C 9,2 C 0,0 km/h
20.10.2017 10:00 10,4 C 84 % 1017,4 hPa 0,0 l/m 0,0 km/h N 7,7 C 10,4 C 0,4 km/h
20.10.2017 11:00 11,4 C 83 % 1017,4 hPa 0,0 l/m 0,0 km/h N 8,6 C 11,4 C 0,0 km/h
20.10.2017 12:00 11,5 C 83 % 1017,3 hPa 0,0 l/m 0,0 km/h N 8,8 C 11,5 C 0,8 km/h
20.10.2017 13:00 11,7 C 83 % 1017,1 hPa 0,0 l/m 0,0 km/h N 8,9 C 11,7 C 1,2 km/h
20.10.2017 14:00 11,8 C 83 % 1017,1 hPa 0,0 l/m 0,1 km/h N 9,0 C 11,8 C 2,4 km/h
20.10.2017 15:00 12,0 C 83 % 1017,0 hPa 0,0 l/m 0,1 km/h N 9,2 C 12,0 C 2,8 km/h
20.10.2017 16:00 12,7 C 83 % 1016,8 hPa 0,0 l/m 0,0 km/h N 9,9 C 12,7 C 1,6 km/h
20.10.2017 17:00 12,8 C 83 % 1017,0 hPa 0,0 l/m 0,0 km/h N 10,0 C 12,8 C 0,8 km/h
20.10.2017 18:00 12,3 C 83 % 1017,3 hPa 0,0 l/m 0,0 km/h N 9,5 C 12,3 C 0,4 km/h
20.10.2017 19:00 11,9 C 83 % 1017,4 hPa 0,0 l/m 0,1 km/h N 9,2 C 11,9 C 2,4 km/h
20.10.2017 20:00 11,6 C 83 % 1017,4 hPa 0,0 l/m 0,1 km/h N 8,8 C 11,6 C 4,0 km/h
20.10.2017 21:00 11,4 C 83 % 1017,5 hPa 0,0 l/m 0,0 km/h N 8,6 C 11,4 C 0,0 km/h
20.10.2017 22:00 11,0 C 83 % 1017,6 hPa 0,0 l/m 0,1 km/h N 8,3 C 11,0 C 1,6 km/h
20.10.2017 23:00 10,8 C 83 % 1017,8 hPa 0,0 l/m 0,0 km/h N 8,0 C 10,8 C 0,0 km/h
21.10.2017 00:00 10,8 C 83 % 1017,7 hPa 0,0 l/m 0,0 km/h N 8,0 C 10,8 C 0,4 km/h
21.10.2017 01:00 10,5 C 83 % 1017,8 hPa 0,0 l/m 0,0 km/h N 7,7 C 10,5 C 0,8 km/h
21.10.2017 02:00 10,0 C 83 % 1017,8 hPa 0,0 l/m 0,0 km/h N 7,3 C 10,0 C 0,8 km/h
21.10.2017 03:00 9,9 C 83 % 1017,6 hPa 0,0 l/m 0,0 km/h N 7,2 C 9,9 C 0,4 km/h
21.10.2017 04:00 9,3 C 83 % 1017,4 hPa 0,0 l/m 0,1 km/h N 6,6 C 9,3 C 2,0 km/h
21.10.2017 05:00 8,9 C 83 % 1017,4 hPa 0,0 l/m 0,0 km/h N 6,2 C 8,9 C 0,0 km/h
21.10.2017 06:00 9,3 C 83 % 1017,3 hPa 0,0 l/m 0,0 km/h N 6,6 C 9,3 C 0,4 km/h
21.10.2017 07:00 9,7 C 84 % 1017,4 hPa 0,0 l/m 0,0 km/h N 7,1 C 9,7 C 0,0 km/h
21.10.2017 08:00 9,6 C 84 % 1017,9 hPa 0,0 l/m 0,0 km/h N 7,0 C 9,6 C 0,0 km/h
21.10.2017 09:00 9,6 C 84 % 1018,2 hPa 0,0 l/m 0,0 km/h N 7,0 C 9,6 C 0,0 km/h
21.10.2017 10:00 10,1 C 84 % 1018,2 hPa 0,0 l/m 0,0 km/h N 7,4 C 10,1 C 0,0 km/h
21.10.2017 11:00 10,7 C 84 % 1018,1 hPa 0,0 l/m 0,0 km/h N 8,0 C 10,7 C 0,4 km/h
21.10.2017 12:00 11,3 C 83 % 1017,8 hPa 0,3 l/m 0,0 km/h N 8,5 C 11,3 C 1,6 km/h
21.10.2017 13:00 11,5 C 83 % 1017,6 hPa 0,3 l/m 0,0 km/h N 8,7 C 11,5 C 0,0 km/h
21.10.2017 14:00 12,7 C 83 % 1016,9 hPa 0,0 l/m 0,0 km/h N 9,9 C 12,7 C 0,4 km/h
21.10.2017 15:00 13,2 C 83 % 1016,8 hPa 0,0 l/m 0,0 km/h N 10,4 C 13,2 C 0,8 km/h
21.10.2017 16:00 13,8 C 83 % 1016,3 hPa 0,0 l/m 0,2 km/h N 11,0 C 13,8 C 4,0 km/h
21.10.2017 17:00 14,8 C 83 % 1016,1 hPa 0,0 l/m 0,0 km/h N 11,9 C 14,8 C 0,8 km/h
21.10.2017 18:00 13,4 C 83 % 1016,3 hPa 0,0 l/m 0,0 km/h N 10,6 C 13,4 C 0,0 km/h
21.10.2017 19:00 11,9 C 83 % 1016,4 hPa 0,0 l/m 0,0 km/h N 9,1 C 11,9 C 0,4 km/h
21.10.2017 20:00 11,1 C 83 % 1016,4 hPa 0,0 l/m 0,0 km/h N 8,3 C 11,1 C 0,0 km/h
21.10.2017 21:00 11,5 C 83 % 1016,2 hPa 0,0 l/m 0,0 km/h N 8,7 C 11,5 C 0,0 km/h
21.10.2017 22:00 11,2 C 83 % 1015,8 hPa 0,0 l/m 0,0 km/h N 8,4 C 11,2 C 0,0 km/h
21.10.2017 23:00 10,3 C 83 % 1015,7 hPa 0,0 l/m 0,0 km/h N 7,6 C 10,3 C 0,0 km/h
22.10.2017 00:00 9,7 C 83 % 1015,8 hPa 0,3 l/m 0,0 km/h N 6,9 C 9,7 C 0,0 km/h
22.10.2017 01:00 9,2 C 83 % 1015,6 hPa 0,0 l/m 0,0 km/h N 6,5 C 9,2 C 0,0 km/h
22.10.2017 02:00 8,6 C 84 % 1015,4 hPa 0,0 l/m 0,0 km/h N 6,0 C 8,6 C 0,0 km/h
22.10.2017 03:00 8,9 C 84 % 1014,8 hPa 0,0 l/m 0,0 km/h N 6,3 C 8,9 C 0,0 km/h
22.10.2017 04:00 9,4 C 84 % 1014,2 hPa 0,0 l/m 0,0 km/h N 6,8 C 9,4 C 0,0 km/h
22.10.2017 05:00 9,1 C 84 % 1014,2 hPa 0,0 l/m 0,0 km/h N 6,4 C 9,1 C 0,0 km/h
22.10.2017 06:00 9,9 C 84 % 1015,0 hPa 0,0 l/m 0,9 km/h N 7,3 C 9,9 C 9,3 km/h
22.10.2017 07:00 11,9 C 83 % 1014,5 hPa 0,3 l/m 4,9 km/h N 9,2 C 11,6 C 20,5 km/h
22.10.2017 08:00 12,8 C 82 % 1015,3 hPa 0,0 l/m 12,6 km/h N 9,7 C 9,5 C 31,0 km/h
22.10.2017 09:00 12,3 C 79 % 1015,7 hPa 0,0 l/m 10,9 km/h N 8,7 C 9,8 C 31,0 km/h
22.10.2017 10:00 12,2 C 75 % 1016,3 hPa 0,0 l/m 11,6 km/h N 7,9 C 9,3 C 33,8 km/h
22.10.2017 11:00 11,0 C 81 % 1016,8 hPa 1,0 l/m 11,1 km/h N 7,8 C 8,1 C 28,1 km/h
22.10.2017 12:00 10,6 C 82 % 1016,5 hPa 1,0 l/m 9,4 km/h N 7,6 C 8,6 C 23,3 km/h
22.10.2017 13:00 10,7 C 82 % 1015,9 hPa 0,0 l/m 7,3 km/h N 7,8 C 10,0 C 19,7 km/h
22.10.2017 14:00 11,2 C 81 % 1015,4 hPa 0,0 l/m 8,6 km/h N 8,1 C 9,8 C 20,5 km/h
22.10.2017 15:00 11,8 C 79 % 1014,8 hPa 0,0 l/m 7,7 km/h N 8,3 C 11,0 C 19,7 km/h
22.10.2017 16:00 11,9 C 77 % 1014,4 hPa 0,0 l/m 6,6 km/h N 8,0 C 11,5 C 17,7 km/h
22.10.2017 17:00 11,9 C 76 % 1014,2 hPa 0,0 l/m 8,1 km/h N 7,9 C 10,9 C 21,3 km/h
22.10.2017 18:00 12,0 C 76 % 1013,9 hPa 0,0 l/m 9,5 km/h N 7,9 C 10,1 C 21,7 km/h
22.10.2017 19:00 11,9 C 77 % 1013,8 hPa 0,0 l/m 8,8 km/h N 8,0 C 10,5 C 22,1 km/h
22.10.2017 20:00 11,8 C 77 % 1013,6 hPa 0,0 l/m 10,6 km/h N 7,8 C 9,3 C 25,3 km/h
22.10.2017 21:00 11,3 C 76 % 1013,7 hPa 0,0 l/m 7,5 km/h N 7,1 C 10,3 C 22,9 km/h
22.10.2017 22:00 10,9 C 76 % 1013,8 hPa 0,0 l/m 8,8 km/h N 6,8 C 9,3 C 24,1 km/h
22.10.2017 23:00 10,5 C 77 % 1013,4 hPa 0,0 l/m 6,6 km/h N 6,6 C 10,1 C 18,5 km/h
Min-Datum _ 20.10.17 16.10.17 22.10.17 - 16.10.17 - 20.10.17 20.10.17 16.10.17
_ Min-Zeit 03:45 15:45 23:45 - 00:00 - 03:45 04:00 00:00
Minimum _ 5,9 C 64 % 1013,3 hPa - 0,0 km/h - 3,3 C 5,9 C 0,0 km/h
Max-Datum _ 16.10.17 16.10.17 16.10.17 22.10.17 22.10.17 - 16.10.17 16.10.17 22.10.17
_ Max-Zeit 15:30 08:00 09:30 11:00 08:30 - 14:00 15:15 10:30
Maximum _ 22,2 C 84 % 1027,9 hPa 1,0 l/m 14,2 km/h
N
- 15,6 C 22,1 C 37,0 km/h
N
Durchschnitt _ 11,8 C 81 % 1018,8 hPa #3,9 l/m 1,0 km/h N 8,7 C 11,6 C 3,5 km/h